sensor_id;sensor_type;location;lat;lon;timestamp;pressure;altitude;pressure_sealevel;temperature;humidity
63700;BME280;49845;47.130;142.766;2023-06-04T00:02:30;98912.22;;;8.28;96.87
63700;BME280;49845;47.130;142.766;2023-06-04T00:05:00;98902.75;;;8.26;96.82
63700;BME280;49845;47.130;142.766;2023-06-04T00:07:31;98906.72;;;8.39;96.87
63700;BME280;49845;47.130;142.766;2023-06-04T00:10:03;98902.16;;;8.47;96.42
63700;BME280;49845;47.130;142.766;2023-06-04T00:12:34;98902.84;;;8.54;96.30
63700;BME280;49845;47.130;142.766;2023-06-04T00:15:07;98898.41;;;8.57;95.87
63700;BME280;49845;47.130;142.766;2023-06-04T00:17:38;98894.81;;;8.61;95.51
63700;BME280;49845;47.130;142.766;2023-06-04T00:20:09;98884.47;;;8.58;95.17
63700;BME280;49845;47.130;142.766;2023-06-04T00:22:40;98891.19;;;8.66;94.86
63700;BME280;49845;47.130;142.766;2023-06-04T00:25:10;98888.59;;;8.66;95.12
63700;BME280;49845;47.130;142.766;2023-06-04T00:27:41;98897.06;;;8.72;95.64
63700;BME280;49845;47.130;142.766;2023-06-04T00:30:14;98894.13;;;8.83;96.15
63700;BME280;49845;47.130;142.766;2023-06-04T00:32:44;98888.91;;;8.83;95.83
63700;BME280;49845;47.130;142.766;2023-06-04T00:35:15;98886.84;;;8.94;95.76
63700;BME280;49845;47.130;142.766;2023-06-04T00:37:46;98884.44;;;9.15;96.12
63700;BME280;49845;47.130;142.766;2023-06-04T00:40:17;98889.91;;;9.34;95.81
63700;BME280;49845;47.130;142.766;2023-06-04T00:42:47;98886.94;;;9.44;95.14
63700;BME280;49845;47.130;142.766;2023-06-04T00:45:19;98884.06;;;9.52;94.53
63700;BME280;49845;47.130;142.766;2023-06-04T00:47:50;98887.69;;;9.48;94.10
63700;BME280;49845;47.130;142.766;2023-06-04T00:50:21;98876.28;;;9.50;93.70
63700;BME280;49845;47.130;142.766;2023-06-04T00:52:52;98860.91;;;9.43;93.73
63700;BME280;49845;47.130;142.766;2023-06-04T00:55:22;98875.34;;;9.53;93.73
63700;BME280;49845;47.130;142.766;2023-06-04T00:57:53;98877.59;;;9.39;92.89
63700;BME280;49845;47.130;142.766;2023-06-04T01:00:25;98875.06;;;9.36;93.65
63700;BME280;49845;47.130;142.766;2023-06-04T01:02:57;98857.47;;;9.42;93.65
63700;BME280;49845;47.130;142.766;2023-06-04T01:05:40;98820.78;;;9.22;93.66
63700;BME280;49845;47.130;142.766;2023-06-04T01:08:11;98861.69;;;9.46;92.83
63700;BME280;49845;47.130;142.766;2023-06-04T01:10:51;98867.16;;;9.39;92.65
63700;BME280;49845;47.130;142.766;2023-06-04T01:13:22;98869.81;;;9.37;93.75
63700;BME280;49845;47.130;142.766;2023-06-04T01:15:57;98865.25;;;9.44;93.57
63700;BME280;49845;47.130;142.766;2023-06-04T01:18:28;98840.44;;;9.32;93.33
63700;BME280;49845;47.130;142.766;2023-06-04T01:21:03;98825.78;;;9.28;93.65
63700;BME280;49845;47.130;142.766;2023-06-04T01:23:44;98844.28;;;9.47;93.27
63700;BME280;49845;47.130;142.766;2023-06-04T01:26:16;98839.31;;;9.39;92.99
63700;BME280;49845;47.130;142.766;2023-06-04T01:28:50;98850.44;;;9.44;93.02
63700;BME280;49845;47.130;142.766;2023-06-04T01:31:23;98847.72;;;9.47;92.98
63700;BME280;49845;47.130;142.766;2023-06-04T01:33:54;98848.31;;;9.56;93.03
63700;BME280;49845;47.130;142.766;2023-06-04T01:36:26;98844.81;;;9.57;92.68
63700;BME280;49845;47.130;142.766;2023-06-04T01:38:56;98839.59;;;9.57;92.15
63700;BME280;49845;47.130;142.766;2023-06-04T01:41:29;98848.31;;;9.56;91.93
63700;BME280;49845;47.130;142.766;2023-06-04T01:43:59;98841.69;;;9.70;92.95
63700;BME280;49845;47.130;142.766;2023-06-04T01:46:31;98837.13;;;9.77;92.48
63700;BME280;49845;47.130;142.766;2023-06-04T01:49:02;98847.31;;;9.83;92.07
63700;BME280;49845;47.130;142.766;2023-06-04T01:51:34;98838.72;;;9.81;91.45
63700;BME280;49845;47.130;142.766;2023-06-04T01:54:05;98844.38;;;9.69;91.27
63700;BME280;49845;47.130;142.766;2023-06-04T01:56:36;98834.78;;;9.69;91.67
63700;BME280;49845;47.130;142.766;2023-06-04T01:59:06;98840.03;;;9.68;91.74
63700;BME280;49845;47.130;142.766;2023-06-04T02:01:42;98835.75;;;9.67;91.78
63700;BME280;49845;47.130;142.766;2023-06-04T02:04:12;98834.16;;;9.63;91.51
63700;BME280;49845;47.130;142.766;2023-06-04T02:06:43;98827.66;;;9.49;91.57
63700;BME280;49845;47.130;142.766;2023-06-04T02:09:13;98827.88;;;9.43;91.76
63700;BME280;49845;47.130;142.766;2023-06-04T02:11:44;98825.22;;;9.45;91.96
63700;BME280;49845;47.130;142.766;2023-06-04T02:14:15;98823.69;;;9.39;92.11
63700;BME280;49845;47.130;142.766;2023-06-04T02:16:47;98815.75;;;9.42;93.34
63700;BME280;49845;47.130;142.766;2023-06-04T02:19:18;98824.47;;;9.41;93.34
63700;BME280;49845;47.130;142.766;2023-06-04T02:21:49;98821.19;;;9.36;93.74
63700;BME280;49845;47.130;142.766;2023-06-04T02:24:19;98821.28;;;9.33;94.05
63700;BME280;49845;47.130;142.766;2023-06-04T02:26:52;98815.97;;;9.36;94.58
63700;BME280;49845;47.130;142.766;2023-06-04T02:29:24;98780.31;;;9.12;93.84
63700;BME280;49845;47.130;142.766;2023-06-04T02:31:56;98817.88;;;9.31;93.74
63700;BME280;49845;47.130;142.766;2023-06-04T02:34:27;98806.31;;;9.38;93.56
63700;BME280;49845;47.130;142.766;2023-06-04T02:36:58;98807.97;;;9.41;93.32
63700;BME280;49845;47.130;142.766;2023-06-04T02:39:28;98808.84;;;9.41;93.72
63700;BME280;49845;47.130;142.766;2023-06-04T02:41:59;98808.84;;;9.41;93.99
63700;BME280;49845;47.130;142.766;2023-06-04T02:44:29;98809.41;;;9.49;93.68
63700;BME280;49845;47.130;142.766;2023-06-04T02:47:01;98786.50;;;9.34;93.89
63700;BME280;49845;47.130;142.766;2023-06-04T02:49:32;98808.31;;;9.57;94.09
63700;BME280;49845;47.130;142.766;2023-06-04T02:52:03;98786.91;;;9.47;93.90
63700;BME280;49845;47.130;142.766;2023-06-04T02:54:33;98805.00;;;9.52;94.02
63700;BME280;49845;47.130;142.766;2023-06-04T02:57:05;98799.91;;;9.48;93.72
63700;BME280;49845;47.130;142.766;2023-06-04T02:59:35;98803.50;;;9.44;93.81
63700;BME280;49845;47.130;142.766;2023-06-04T03:02:08;98807.88;;;9.44;94.09
63700;BME280;49845;47.130;142.766;2023-06-04T03:04:39;98794.09;;;9.40;94.65
63700;BME280;49845;47.130;142.766;2023-06-04T03:07:10;98796.66;;;9.42;95.47
63700;BME280;49845;47.130;142.766;2023-06-04T03:09:41;98796.69;;;9.40;95.67
63700;BME280;49845;47.130;142.766;2023-06-04T03:12:12;98784.69;;;9.36;95.86
63700;BME280;49845;47.130;142.766;2023-06-04T03:14:43;98784.34;;;9.45;96.60
63700;BME280;49845;47.130;142.766;2023-06-04T03:17:15;98787.56;;;9.54;96.75
63700;BME280;49845;47.130;142.766;2023-06-04T03:19:45;98785.72;;;9.56;96.13
63700;BME280;49845;47.130;142.766;2023-06-04T03:22:16;98778.09;;;9.51;95.76
63700;BME280;49845;47.130;142.766;2023-06-04T03:24:47;98780.78;;;9.48;95.97
63700;BME280;49845;47.130;142.766;2023-06-04T03:27:17;98778.16;;;9.48;96.10
63700;BME280;49845;47.130;142.766;2023-06-04T03:29:48;98780.72;;;9.49;95.97
63700;BME280;49845;47.130;142.766;2023-06-04T03:32:20;98779.94;;;9.47;95.64
63700;BME280;49845;47.130;142.766;2023-06-04T03:34:50;98767.13;;;9.41;95.64
63700;BME280;49845;47.130;142.766;2023-06-04T03:37:21;98775.63;;;9.46;95.82
63700;BME280;49845;47.130;142.766;2023-06-04T03:39:51;98779.97;;;9.46;96.03
63700;BME280;49845;47.130;142.766;2023-06-04T03:42:22;98773.91;;;9.45;95.88
63700;BME280;49845;47.130;142.766;2023-06-04T03:44:52;98779.25;;;9.42;96.22
63700;BME280;49845;47.130;142.766;2023-06-04T03:47:24;98785.25;;;9.44;96.49
63700;BME280;49845;47.130;142.766;2023-06-04T03:49:55;98782.66;;;9.44;96.25
63700;BME280;49845;47.130;142.766;2023-06-04T03:52:25;98775.16;;;9.35;96.40
63700;BME280;49845;47.130;142.766;2023-06-04T03:54:56;98782.78;;;9.41;96.88
63700;BME280;49845;47.130;142.766;2023-06-04T03:57:27;98776.47;;;9.47;97.66
63700;BME280;49845;47.130;142.766;2023-06-04T03:59:58;98784.16;;;9.52;97.80
63700;BME280;49845;47.130;142.766;2023-06-04T04:02:30;98781.66;;;9.48;97.50
63700;BME280;49845;47.130;142.766;2023-06-04T04:05:01;98786.09;;;9.45;97.43
63700;BME280;49845;47.130;142.766;2023-06-04T04:07:31;98784.56;;;9.39;97.07
63700;BME280;49845;47.130;142.766;2023-06-04T04:10:02;98786.25;;;9.40;97.14
63700;BME280;49845;47.130;142.766;2023-06-04T04:12:34;98782.66;;;9.44;97.30
63700;BME280;49845;47.130;142.766;2023-06-04T04:15:05;98786.94;;;9.45;97.07
63700;BME280;49845;47.130;142.766;2023-06-04T04:17:38;98782.78;;;9.41;96.68
63700;BME280;49845;47.130;142.766;2023-06-04T04:20:10;98783.72;;;9.39;96.43
63700;BME280;49845;47.130;142.766;2023-06-04T04:22:41;98787.28;;;9.36;96.80
63700;BME280;49845;47.130;142.766;2023-06-04T04:25:12;98787.34;;;9.35;97.13
63700;BME280;49845;47.130;142.766;2023-06-04T04:27:42;98788.06;;;9.38;97.43
63700;BME280;49845;47.130;142.766;2023-06-04T04:30:13;98782.78;;;9.41;97.71
63700;BME280;49845;47.130;142.766;2023-06-04T04:32:46;98786.25;;;9.40;97.39
63700;BME280;49845;47.130;142.766;2023-06-04T04:35:18;98784.78;;;9.33;96.97
63700;BME280;49845;47.130;142.766;2023-06-04T04:37:49;98788.41;;;9.29;97.27
63700;BME280;49845;47.130;142.766;2023-06-04T04:40:19;98786.66;;;9.29;97.52
63700;BME280;49845;47.130;142.766;2023-06-04T04:42:50;98790.09;;;9.30;97.58
63700;BME280;49845;47.130;142.766;2023-06-04T04:45:20;98776.38;;;9.25;97.63
63700;BME280;49845;47.130;142.766;2023-06-04T04:47:52;98784.78;;;9.33;97.91
63700;BME280;49845;47.130;142.766;2023-06-04T04:50:23;98781.16;;;9.37;97.74
63700;BME280;49845;47.130;142.766;2023-06-04T04:52:54;98782.97;;;9.35;97.09
63700;BME280;49845;47.130;142.766;2023-06-04T04:55:24;98782.84;;;9.38;97.07
63700;BME280;49845;47.130;142.766;2023-06-04T04:57:55;98785.66;;;9.34;96.55
63700;BME280;49845;47.130;142.766;2023-06-04T05:00:26;98788.28;;;9.32;96.14
63700;BME280;49845;47.130;142.766;2023-06-04T05:02:58;98787.66;;;9.25;95.88
63700;BME280;49845;47.130;142.766;2023-06-04T05:05:28;98790.31;;;9.24;96.30
63700;BME280;49845;47.130;142.766;2023-06-04T05:07:59;98791.91;;;9.28;97.04
63700;BME280;49845;47.130;142.766;2023-06-04T05:10:30;98790.09;;;9.30;96.83
63700;BME280;49845;47.130;142.766;2023-06-04T05:13:00;98780.59;;;9.29;96.78
63700;BME280;49845;47.130;142.766;2023-06-04T05:15:31;98795.00;;;9.39;96.79
63700;BME280;49845;47.130;142.766;2023-06-04T05:18:04;98795.00;;;9.39;96.47
63700;BME280;49845;47.130;142.766;2023-06-04T05:20:36;98786.50;;;9.34;96.53
63700;BME280;49845;47.130;142.766;2023-06-04T05:23:07;98777.88;;;9.32;96.90
63700;BME280;49845;47.130;142.766;2023-06-04T05:25:37;98790.00;;;9.33;97.14
63700;BME280;49845;47.130;142.766;2023-06-04T05:28:09;98788.28;;;9.32;97.14
63700;BME280;49845;47.130;142.766;2023-06-04T05:30:41;98784.88;;;9.30;96.93
63700;BME280;49845;47.130;142.766;2023-06-04T05:33:13;98787.66;;;9.25;97.16
63700;BME280;49845;47.130;142.766;2023-06-04T05:35:47;98783.41;;;9.23;97.49
63700;BME280;49845;47.130;142.766;2023-06-04T05:38:18;98770.53;;;9.18;97.35
63700;BME280;49845;47.130;142.766;2023-06-04T05:40:49;98789.56;;;9.20;97.45
63700;BME280;49845;47.130;142.766;2023-06-04T05:43:21;98788.00;;;9.16;97.66
63700;BME280;49845;47.130;142.766;2023-06-04T05:45:52;98785.53;;;9.12;97.57
63700;BME280;49845;47.130;142.766;2023-06-04T05:48:25;98775.09;;;9.12;97.52
63700;BME280;49845;47.130;142.766;2023-06-04T05:50:55;98784.19;;;9.25;98.02
63700;BME280;49845;47.130;142.766;2023-06-04T05:53:26;98788.50;;;9.26;97.68
63700;BME280;49845;47.130;142.766;2023-06-04T05:55:57;98789.44;;;9.23;97.79
63700;BME280;49845;47.130;142.766;2023-06-04T05:58:27;98783.50;;;9.20;97.26
63700;BME280;49845;47.130;142.766;2023-06-04T06:00:58;98782.13;;;9.10;96.11
63700;BME280;49845;47.130;142.766;2023-06-04T06:03:30;98784.34;;;8.95;94.03
63700;BME280;49845;47.130;142.766;2023-06-04T06:06:01;98781.88;;;8.91;92.90
63700;BME280;49845;47.130;142.766;2023-06-04T06:08:31;98783.88;;;8.82;92.02
63700;BME280;49845;47.130;142.766;2023-06-04T06:11:02;98791.00;;;8.77;92.09
63700;BME280;49845;47.130;142.766;2023-06-04T06:13:37;98789.47;;;8.72;91.76
63700;BME280;49845;47.130;142.766;2023-06-04T06:16:08;98761.72;;;8.44;90.75
63700;BME280;49845;47.130;142.766;2023-06-04T06:18:40;98791.03;;;8.49;89.96
63700;BME280;49845;47.130;142.766;2023-06-04T06:21:11;98791.56;;;8.31;90.05
63700;BME280;49845;47.130;142.766;2023-06-04T06:23:41;98796.38;;;8.16;89.47
63700;BME280;49845;47.130;142.766;2023-06-04T06:26:12;98805.47;;;8.02;90.30
63700;BME280;49845;47.130;142.766;2023-06-04T06:28:44;98806.75;;;7.87;90.74
63700;BME280;49845;47.130;142.766;2023-06-04T06:31:15;98805.31;;;7.76;90.60
63700;BME280;49845;47.130;142.766;2023-06-04T06:33:48;98807.31;;;7.67;91.79
63700;BME280;49845;47.130;142.766;2023-06-04T06:36:18;98816.91;;;7.65;91.95
63700;BME280;49845;47.130;142.766;2023-06-04T06:38:49;98805.72;;;7.61;92.58
63700;BME280;49845;47.130;142.766;2023-06-04T06:41:21;98815.38;;;7.57;92.79
63700;BME280;49845;47.130;142.766;2023-06-04T06:43:51;98811.84;;;7.60;93.35
63700;BME280;49845;47.130;142.766;2023-06-04T06:46:22;98805.56;;;7.67;93.42
63700;BME280;49845;47.130;142.766;2023-06-04T06:48:54;98810.78;;;7.67;92.78
63700;BME280;49845;47.130;142.766;2023-06-04T06:51:26;98816.06;;;7.64;92.51
63700;BME280;49845;47.130;142.766;2023-06-04T06:53:58;98813.53;;;7.61;91.55
63700;BME280;49845;47.130;142.766;2023-06-04T06:56:30;98818.59;;;7.66;91.33
63700;BME280;49845;47.130;142.766;2023-06-04T06:59:00;98816.81;;;7.68;91.26
63700;BME280;49845;47.130;142.766;2023-06-04T07:01:31;98802.63;;;7.80;91.56
63700;BME280;49845;47.130;142.766;2023-06-04T07:04:04;98800.75;;;7.85;91.16
63700;BME280;49845;47.130;142.766;2023-06-04T07:06:34;98804.19;;;7.85;90.73
63700;BME280;49845;47.130;142.766;2023-06-04T07:09:06;98804.97;;;7.89;90.31
63700;BME280;49845;47.130;142.766;2023-06-04T07:11:37;98801.56;;;7.87;89.96
63700;BME280;49845;47.130;142.766;2023-06-04T07:14:07;98814.38;;;7.93;89.51
63700;BME280;49845;47.130;142.766;2023-06-04T07:16:38;98805.81;;;7.89;89.54
63700;BME280;49845;47.130;142.766;2023-06-04T07:19:10;98786.47;;;7.68;88.73
63700;BME280;49845;47.130;142.766;2023-06-04T07:21:40;98799.66;;;7.62;88.14
63700;BME280;49845;47.130;142.766;2023-06-04T07:24:11;98806.50;;;7.65;87.93
63700;BME280;49845;47.130;142.766;2023-06-04T07:26:42;98805.66;;;7.64;88.46
63700;BME280;49845;47.130;142.766;2023-06-04T07:29:12;98809.75;;;7.73;89.17
63700;BME280;49845;47.130;142.766;2023-06-04T07:31:43;98796.13;;;7.65;88.77
63700;BME280;49845;47.130;142.766;2023-06-04T07:34:15;98803.50;;;7.78;88.63
63700;BME280;49845;47.130;142.766;2023-06-04T07:36:46;98804.22;;;7.84;88.85
63700;BME280;49845;47.130;142.766;2023-06-04T07:39:17;98792.66;;;7.64;87.35
63700;BME280;49845;47.130;142.766;2023-06-04T07:41:47;98789.72;;;7.45;87.07
63700;BME280;49845;47.130;142.766;2023-06-04T07:44:18;98808.69;;;7.49;87.54
63700;BME280;49845;47.130;142.766;2023-06-04T07:46:48;98815.69;;;7.45;88.39
63700;BME280;49845;47.130;142.766;2023-06-04T07:49:21;98815.09;;;7.35;88.38
63700;BME280;49845;47.130;142.766;2023-06-04T07:51:51;98808.28;;;7.31;88.18
63700;BME280;49845;47.130;142.766;2023-06-04T07:54:22;98809.28;;;7.26;88.27
63700;BME280;49845;47.130;142.766;2023-06-04T07:56:52;98805.09;;;7.20;87.98
63700;BME280;49845;47.130;142.766;2023-06-04T07:59:24;98811.41;;;7.11;88.13
63700;BME280;49845;47.130;142.766;2023-06-04T08:01:55;98814.13;;;7.07;88.30
63700;BME280;49845;47.130;142.766;2023-06-04T08:04:27;98819.34;;;7.04;88.07
63700;BME280;49845;47.130;142.766;2023-06-04T08:06:58;98812.47;;;7.03;88.25
63700;BME280;49845;47.130;142.766;2023-06-04T08:09:29;98819.34;;;7.04;88.56
63700;BME280;49845;47.130;142.766;2023-06-04T08:12:00;98819.34;;;7.04;87.90
63700;BME280;49845;47.130;142.766;2023-06-04T08:14:30;98815.19;;;6.98;87.48
63700;BME280;49845;47.130;142.766;2023-06-04T08:17:01;98824.72;;;6.98;88.46
63700;BME280;49845;47.130;142.766;2023-06-04T08:19:33;98818.78;;;6.93;88.14
63700;BME280;49845;47.130;142.766;2023-06-04T08:22:04;98823.06;;;6.94;88.54
63700;BME280;49845;47.130;142.766;2023-06-04T08:24:35;98821.56;;;6.86;88.05
63700;BME280;49845;47.130;142.766;2023-06-04T08:27:06;98842.31;;;6.86;87.87
63700;BME280;49845;47.130;142.766;2023-06-04T08:29:37;98790.28;;;6.55;87.27
63700;BME280;49845;47.130;142.766;2023-06-04T08:32:08;98832.28;;;6.71;88.96
63700;BME280;49845;47.130;142.766;2023-06-04T08:34:40;98801.72;;;6.46;89.31
63700;BME280;49845;47.130;142.766;2023-06-04T08:37:11;98840.25;;;6.63;89.45
63700;BME280;49845;47.130;142.766;2023-06-04T08:39:42;98839.41;;;6.61;89.37
63700;BME280;49845;47.130;142.766;2023-06-04T08:42:22;98818.56;;;6.66;89.93
63700;BME280;49845;47.130;142.766;2023-06-04T08:44:58;98835.50;;;6.82;89.87
63700;BME280;49845;47.130;142.766;2023-06-04T08:47:29;98836.97;;;6.93;90.56
63700;BME280;49845;47.130;142.766;2023-06-04T08:50:03;98843.56;;;7.06;92.11
63700;BME280;49845;47.130;142.766;2023-06-04T08:52:38;98845.13;;;7.13;92.34
63700;BME280;49845;47.130;142.766;2023-06-04T08:55:11;98854.47;;;7.20;92.30
63700;BME280;49845;47.130;142.766;2023-06-04T08:57:43;98850.78;;;7.29;93.48
63700;BME280;49845;47.130;142.766;2023-06-04T09:00:18;98842.94;;;7.30;94.08
63700;BME280;49845;47.130;142.766;2023-06-04T09:02:50;98853.25;;;7.33;94.35
63700;BME280;49845;47.130;142.766;2023-06-04T09:05:23;98856.94;;;7.25;93.67
63700;BME280;49845;47.130;142.766;2023-06-04T09:07:59;98856.91;;;7.26;93.70
63700;BME280;49845;47.130;142.766;2023-06-04T09:10:36;98858.53;;;7.30;94.11
63700;BME280;49845;47.130;142.766;2023-06-04T09:13:26;98840.75;;;7.13;94.06
63700;BME280;49845;47.130;142.766;2023-06-04T09:16:25;98863.81;;;7.27;94.46
63700;BME280;49845;47.130;142.766;2023-06-04T09:19:06;98868.84;;;7.33;94.73
63700;BME280;49845;47.130;142.766;2023-06-04T09:21:53;98862.03;;;7.29;94.20
63700;BME280;49845;47.130;142.766;2023-06-04T09:24:38;98865.50;;;7.28;94.58
63700;BME280;49845;47.130;142.766;2023-06-04T09:27:12;98865.75;;;7.19;94.60
63700;BME280;49845;47.130;142.766;2023-06-04T09:29:54;98836.97;;;6.93;95.05
63700;BME280;49845;47.130;142.766;2023-06-04T09:32:27;98882.97;;;7.23;95.55
63700;BME280;49845;47.130;142.766;2023-06-04T09:35:34;98875.75;;;6.99;94.90
63700;BME280;49845;47.130;142.766;2023-06-04T09:38:34;98872.97;;;6.70;95.36
63700;BME280;49845;47.130;142.766;2023-06-04T09:41:18;98829.44;;;6.44;96.09
63700;BME280;49845;47.130;142.766;2023-06-04T09:44:06;98761.41;;;5.91;95.90
63700;BME280;49845;47.130;142.766;2023-06-04T09:46:42;98874.88;;;6.62;96.62
63700;BME280;49845;47.130;142.766;2023-06-04T09:49:26;98886.19;;;6.60;97.52
63700;BME280;49845;47.130;142.766;2023-06-04T09:52:01;98886.19;;;6.60;98.81
63700;BME280;49845;47.130;142.766;2023-06-04T09:54:37;98889.66;;;6.59;99.56
63700;BME280;49845;47.130;142.766;2023-06-04T09:57:15;98840.28;;;6.23;100.00
63700;BME280;49845;47.130;142.766;2023-06-04T09:59:50;98881.38;;;6.41;100.00
63700;BME280;49845;47.130;142.766;2023-06-04T10:02:26;98823.28;;;6.10;100.00
63700;BME280;49845;47.130;142.766;2023-06-04T10:05:33;98884.03;;;6.40;100.00
63700;BME280;49845;47.130;142.766;2023-06-04T10:08:31;98879.09;;;6.29;100.00
63700;BME280;49845;47.130;142.766;2023-06-04T10:11:04;98892.75;;;6.37;100.00
63700;BME280;49845;47.130;142.766;2023-06-04T10:13:41;98897.63;;;6.51;100.00
63700;BME280;49845;47.130;142.766;2023-06-04T10:16:15;98893.22;;;6.55;100.00
63700;BME280;49845;47.130;142.766;2023-06-04T10:19:01;98841.88;;;6.30;100.00
63700;BME280;49845;47.130;142.766;2023-06-04T10:21:35;98844.28;;;6.38;100.00
63700;BME280;49845;47.130;142.766;2023-06-04T10:24:08;98899.78;;;6.71;100.00
63700;BME280;49845;47.130;142.766;2023-06-04T10:26:42;98853.66;;;6.43;100.00
63700;BME280;49845;47.130;142.766;2023-06-04T10:29:15;98863.84;;;6.53;100.00
63700;BME280;49845;47.130;142.766;2023-06-04T10:31:48;98903.38;;;6.64;100.00
63700;BME280;49845;47.130;142.766;2023-06-04T10:34:26;98873.06;;;6.27;100.00
63700;BME280;49845;47.130;142.766;2023-06-04T10:37:01;98905.72;;;6.37;100.00
63700;BME280;49845;47.130;142.766;2023-06-04T10:39:35;98910.22;;;6.29;100.00
63700;BME280;49845;47.130;142.766;2023-06-04T10:42:10;98914.50;;;6.30;100.00
63700;BME280;49845;47.130;142.766;2023-06-04T10:44:45;98919.03;;;6.19;100.00
63700;BME280;49845;47.130;142.766;2023-06-04T10:47:20;98903.09;;;5.95;100.00
63700;BME280;49845;47.130;142.766;2023-06-04T10:50:09;98919.41;;;6.02;100.00
63700;BME280;49845;47.130;142.766;2023-06-04T10:52:54;98910.16;;;5.84;100.00
63700;BME280;49845;47.130;142.766;2023-06-04T10:55:26;98929.97;;;5.90;100.00
63700;BME280;49845;47.130;142.766;2023-06-04T10:57:59;98927.38;;;5.88;100.00
63700;BME280;49845;47.130;142.766;2023-06-04T11:00:43;98931.81;;;5.81;100.00
63700;BME280;49845;47.130;142.766;2023-06-04T11:03:17;98923.34;;;5.73;100.00
63700;BME280;49845;47.130;142.766;2023-06-04T11:05:49;98919.00;;;5.74;100.00
63700;BME280;49845;47.130;142.766;2023-06-04T11:08:30;98939.66;;;5.80;100.00
63700;BME280;49845;47.130;142.766;2023-06-04T11:11:12;98913.13;;;5.66;100.00
63700;BME280;49845;47.130;142.766;2023-06-04T11:13:46;98937.91;;;5.79;100.00
63700;BME280;49845;47.130;142.766;2023-06-04T11:16:18;98936.16;;;5.81;100.00
63700;BME280;49845;47.130;142.766;2023-06-04T11:18:58;98943.06;;;5.82;100.00
63700;BME280;49845;47.130;142.766;2023-06-04T11:21:31;98944.84;;;5.80;100.00
63700;BME280;49845;47.130;142.766;2023-06-04T11:24:06;98945.66;;;5.82;100.00
63700;BME280;49845;47.130;142.766;2023-06-04T11:26:38;98944.91;;;5.77;100.00
63700;BME280;49845;47.130;142.766;2023-06-04T11:29:22;98941.56;;;5.69;100.00
63700;BME280;49845;47.130;142.766;2023-06-04T11:31:55;98939.88;;;5.68;100.00
63700;BME280;49845;47.130;142.766;2023-06-04T11:34:27;98941.63;;;5.64;100.00
63700;BME280;49845;47.130;142.766;2023-06-04T11:37:09;98941.78;;;5.56;100.00
63700;BME280;49845;47.130;142.766;2023-06-04T11:39:42;98915.28;;;5.42;100.00
63700;BME280;49845;47.130;142.766;2023-06-04T11:42:15;98950.38;;;5.58;100.00
63700;BME280;49845;47.130;142.766;2023-06-04T11:44:58;98936.72;;;5.50;100.00
63700;BME280;49845;47.130;142.766;2023-06-04T11:47:30;98947.00;;;5.53;100.00
63700;BME280;49845;47.130;142.766;2023-06-04T11:50:03;98953.03;;;5.55;100.00
63700;BME280;49845;47.130;142.766;2023-06-04T11:52:37;98953.09;;;5.52;100.00
63700;BME280;49845;47.130;142.766;2023-06-04T11:55:10;98960.03;;;5.49;100.00
63700;BME280;49845;47.130;142.766;2023-06-04T11:57:42;98960.09;;;5.47;100.00
63700;BME280;49845;47.130;142.766;2023-06-04T12:00:17;98964.44;;;5.45;100.00
63700;BME280;49845;47.130;142.766;2023-06-04T12:02:50;98958.47;;;5.40;100.00
63700;BME280;49845;47.130;142.766;2023-06-04T12:05:28;98954.28;;;5.33;100.00
63700;BME280;49845;47.130;142.766;2023-06-04T12:08:07;98955.97;;;5.34;100.00
63700;BME280;49845;47.130;142.766;2023-06-04T12:10:40;98932.72;;;5.31;100.00
63700;BME280;49845;47.130;142.766;2023-06-04T12:13:12;98955.75;;;5.46;100.00
63700;BME280;49845;47.130;142.766;2023-06-04T12:15:52;98940.34;;;5.40;100.00
63700;BME280;49845;47.130;142.766;2023-06-04T12:18:24;98952.31;;;5.47;100.00
63700;BME280;49845;47.130;142.766;2023-06-04T12:20:56;98943.78;;;5.40;100.00
63700;BME280;49845;47.130;142.766;2023-06-04T12:23:28;98901.00;;;5.16;100.00
63700;BME280;49845;47.130;142.766;2023-06-04T12:26:00;98950.56;;;5.49;100.00
63700;BME280;49845;47.130;142.766;2023-06-04T12:28:33;98954.06;;;5.45;100.00
63700;BME280;49845;47.130;142.766;2023-06-04T12:31:16;98952.25;;;5.50;100.00
63700;BME280;49845;47.130;142.766;2023-06-04T12:33:48;98950.56;;;5.49;100.00
63700;BME280;49845;47.130;142.766;2023-06-04T12:36:20;98950.59;;;5.46;100.00
63700;BME280;49845;47.130;142.766;2023-06-04T12:38:52;98957.50;;;5.47;100.00
63700;BME280;49845;47.130;142.766;2023-06-04T12:41:24;98941.31;;;5.34;100.00
63700;BME280;49845;47.130;142.766;2023-06-04T12:43:56;98957.59;;;5.41;100.00
63700;BME280;49845;47.130;142.766;2023-06-04T12:46:30;98953.22;;;5.43;100.00
63700;BME280;49845;47.130;142.766;2023-06-04T12:49:02;98944.56;;;5.44;100.00
63700;BME280;49845;47.130;142.766;2023-06-04T12:51:37;98947.09;;;5.49;100.00
63700;BME280;49845;47.130;142.766;2023-06-04T12:54:09;98953.94;;;5.51;100.00
63700;BME280;49845;47.130;142.766;2023-06-04T12:56:41;98947.13;;;5.47;100.00
63700;BME280;49845;47.130;142.766;2023-06-04T12:59:21;98942.88;;;5.45;100.00
63700;BME280;49845;47.130;142.766;2023-06-04T13:01:55;98941.94;;;5.47;100.00
63700;BME280;49845;47.130;142.766;2023-06-04T13:04:27;98947.06;;;5.52;100.00
63700;BME280;49845;47.130;142.766;2023-06-04T13:10:53;98930.88;;;5.37;100.00
63700;BME280;49845;47.130;142.766;2023-06-04T13:13:38;98940.28;;;5.43;100.00
63700;BME280;49845;47.130;142.766;2023-06-04T13:16:09;98950.66;;;5.43;100.00
63700;BME280;49845;47.130;142.766;2023-06-04T13:18:41;98942.94;;;5.40;100.00
63700;BME280;49845;47.130;142.766;2023-06-04T13:21:13;98902.91;;;5.05;100.00
63700;BME280;49845;47.130;142.766;2023-06-04T13:23:47;98952.56;;;5.32;100.00